Terminal Aerodrome Forecast
Issued by NWS

Current Version | Previous Version | Text Only | Print | Product List | Glossary On
Versions: 1 2 3 4 5 6 7 8 9 10 11 12
000
FTUS42 KGSP 211121
TAFAND
TAF
KAND 211121Z 2112/2212 00000KT P6SM BKN100
     FM211300 07003KT P6SM FEW250
     FM211700 11006KT P6SM FEW045
     FM220200 15003KT P6SM FEW050
     FM220600 00000KT P6SM BKN250=

USA.gov is the U.S. government's official web portal to all federal, state and local government web resources and services.